sensor_id;sensor_type;location;lat;lon;timestamp;P1;durP1;ratioP1;P2;durP2;ratioP2
83801;SDS011;73818;51.646;15.140;2024-02-26T00:04:21;6;;;3;;
83801;SDS011;73818;51.646;15.140;2024-02-26T00:10:33;6;;;3;;
83801;SDS011;73818;51.646;15.140;2024-02-26T00:16:45;7;;;3;;
83801;SDS011;73818;51.646;15.140;2024-02-26T00:22:56;5;;;3;;
83801;SDS011;73818;51.646;15.140;2024-02-26T00:29:08;6;;;3;;
83801;SDS011;73818;51.646;15.140;2024-02-26T00:35:20;5;;;3;;
83801;SDS011;73818;51.646;15.140;2024-02-26T00:41:32;6;;;3;;
83801;SDS011;73818;51.646;15.140;2024-02-26T00:47:43;5;;;3;;
83801;SDS011;73818;51.646;15.140;2024-02-26T00:53:55;5;;;3;;
83801;SDS011;73818;51.646;15.140;2024-02-26T01:00:07;5;;;3;;
83801;SDS011;73818;51.646;15.140;2024-02-26T01:06:18;5;;;3;;
83801;SDS011;73818;51.646;15.140;2024-02-26T01:12:30;5;;;3;;
83801;SDS011;73818;51.646;15.140;2024-02-26T01:18:41;5;;;3;;
83801;SDS011;73818;51.646;15.140;2024-02-26T01:24:52;6;;;3;;
83801;SDS011;73818;51.646;15.140;2024-02-26T01:31:05;5;;;2;;
83801;SDS011;73818;51.646;15.140;2024-02-26T01:37:17;5;;;2;;
83801;SDS011;73818;51.646;15.140;2024-02-26T01:43:28;6;;;3;;
83801;SDS011;73818;51.646;15.140;2024-02-26T01:49:40;5;;;3;;
83801;SDS011;73818;51.646;15.140;2024-02-26T01:55:52;5;;;3;;
83801;SDS011;73818;51.646;15.140;2024-02-26T02:02:04;5;;;3;;
83801;SDS011;73818;51.646;15.140;2024-02-26T02:08:15;5;;;3;;
83801;SDS011;73818;51.646;15.140;2024-02-26T02:14:26;5;;;3;;
83801;SDS011;73818;51.646;15.140;2024-02-26T02:20:39;5;;;3;;
83801;SDS011;73818;51.646;15.140;2024-02-26T02:26:50;6;;;3;;
83801;SDS011;73818;51.646;15.140;2024-02-26T02:33:02;5;;;3;;
83801;SDS011;73818;51.646;15.140;2024-02-26T02:39:13;5;;;3;;
83801;SDS011;73818;51.646;15.140;2024-02-26T02:45:25;5;;;3;;
83801;SDS011;73818;51.646;15.140;2024-02-26T02:51:37;5;;;3;;
83801;SDS011;73818;51.646;15.140;2024-02-26T02:57:48;5;;;3;;
83801;SDS011;73818;51.646;15.140;2024-02-26T03:03:59;5;;;3;;
83801;SDS011;73818;51.646;15.140;2024-02-26T03:10:12;6;;;3;;
83801;SDS011;73818;51.646;15.140;2024-02-26T03:16:24;6;;;4;;
83801;SDS011;73818;51.646;15.140;2024-02-26T03:22:35;5;;;3;;
83801;SDS011;73818;51.646;15.140;2024-02-26T03:28:47;6;;;4;;
83801;SDS011;73818;51.646;15.140;2024-02-26T03:34:58;6;;;3;;
83801;SDS011;73818;51.646;15.140;2024-02-26T03:41:11;6;;;4;;
83801;SDS011;73818;51.646;15.140;2024-02-26T03:47:22;6;;;3;;
83801;SDS011;73818;51.646;15.140;2024-02-26T03:53:34;5;;;4;;
83801;SDS011;73818;51.646;15.140;2024-02-26T03:59:45;5;;;3;;
83801;SDS011;73818;51.646;15.140;2024-02-26T04:05:56;5;;;3;;
83801;SDS011;73818;51.646;15.140;2024-02-26T04:12:09;6;;;4;;
83801;SDS011;73818;51.646;15.140;2024-02-26T04:18:21;5;;;3;;
83801;SDS011;73818;51.646;15.140;2024-02-26T04:24:32;6;;;3;;
83801;SDS011;73818;51.646;15.140;2024-02-26T04:30:44;5;;;3;;
83801;SDS011;73818;51.646;15.140;2024-02-26T04:36:56;6;;;3;;
83801;SDS011;73818;51.646;15.140;2024-02-26T04:43:07;5;;;3;;
83801;SDS011;73818;51.646;15.140;2024-02-26T04:49:19;6;;;3;;
83801;SDS011;73818;51.646;15.140;2024-02-26T04:55:30;6;;;4;;
83801;SDS011;73818;51.646;15.140;2024-02-26T05:01:42;6;;;3;;
83801;SDS011;73818;51.646;15.140;2024-02-26T05:07:53;6;;;4;;
83801;SDS011;73818;51.646;15.140;2024-02-26T05:14:05;5;;;4;;
83801;SDS011;73818;51.646;15.140;2024-02-26T05:20:17;6;;;3;;
83801;SDS011;73818;51.646;15.140;2024-02-26T05:26:28;6;;;3;;
83801;SDS011;73818;51.646;15.140;2024-02-26T05:32:40;5;;;3;;
83801;SDS011;73818;51.646;15.140;2024-02-26T05:38:52;6;;;4;;
83801;SDS011;73818;51.646;15.140;2024-02-26T05:45:04;221;;;44;;
83801;SDS011;73818;51.646;15.140;2024-02-26T05:51:15;116;;;23;;
83801;SDS011;73818;51.646;15.140;2024-02-26T05:57:27;73;;;17;;
83801;SDS011;73818;51.646;15.140;2024-02-26T06:03:39;49;;;13;;
83801;SDS011;73818;51.646;15.140;2024-02-26T06:09:51;35;;;10;;
83801;SDS011;73818;51.646;15.140;2024-02-26T06:16:02;29;;;9;;
83801;SDS011;73818;51.646;15.140;2024-02-26T06:22:14;23;;;8;;
83801;SDS011;73818;51.646;15.140;2024-02-26T06:28:25;19;;;6;;
83801;SDS011;73818;51.646;15.140;2024-02-26T06:34:37;14;;;6;;
83801;SDS011;73818;51.646;15.140;2024-02-26T06:40:49;12;;;5;;
83801;SDS011;73818;51.646;15.140;2024-02-26T06:47:00;10;;;5;;
83801;SDS011;73818;51.646;15.140;2024-02-26T06:53:12;10;;;5;;
83801;SDS011;73818;51.646;15.140;2024-02-26T06:59:24;11;;;5;;
83801;SDS011;73818;51.646;15.140;2024-02-26T07:05:36;9;;;5;;
83801;SDS011;73818;51.646;15.140;2024-02-26T07:11:48;9;;;5;;
83801;SDS011;73818;51.646;15.140;2024-02-26T07:17:59;10;;;5;;
83801;SDS011;73818;51.646;15.140;2024-02-26T07:24:11;8;;;5;;
83801;SDS011;73818;51.646;15.140;2024-02-26T07:30:24;10;;;5;;
83801;SDS011;73818;51.646;15.140;2024-02-26T07:36:36;9;;;5;;
83801;SDS011;73818;51.646;15.140;2024-02-26T07:42:47;9;;;5;;
83801;SDS011;73818;51.646;15.140;2024-02-26T07:48:58;9;;;4;;
83801;SDS011;73818;51.646;15.140;2024-02-26T07:55:10;9;;;5;;
83801;SDS011;73818;51.646;15.140;2024-02-26T08:01:22;8;;;5;;
83801;SDS011;73818;51.646;15.140;2024-02-26T08:07:34;9;;;5;;
83801;SDS011;73818;51.646;15.140;2024-02-26T08:13:45;9;;;5;;
83801;SDS011;73818;51.646;15.140;2024-02-26T08:19:57;10;;;5;;
83801;SDS011;73818;51.646;15.140;2024-02-26T08:26:08;8;;;4;;
83801;SDS011;73818;51.646;15.140;2024-02-26T08:32:19;9;;;5;;
83801;SDS011;73818;51.646;15.140;2024-02-26T08:38:31;8;;;5;;
83801;SDS011;73818;51.646;15.140;2024-02-26T08:44:42;9;;;5;;
83801;SDS011;73818;51.646;15.140;2024-02-26T08:50:54;9;;;5;;
83801;SDS011;73818;51.646;15.140;2024-02-26T08:57:06;9;;;5;;
83801;SDS011;73818;51.646;15.140;2024-02-26T09:03:17;9;;;5;;
83801;SDS011;73818;51.646;15.140;2024-02-26T09:09:29;9;;;5;;
83801;SDS011;73818;51.646;15.140;2024-02-26T09:15:41;8;;;5;;
83801;SDS011;73818;51.646;15.140;2024-02-26T09:21:52;9;;;5;;
83801;SDS011;73818;51.646;15.140;2024-02-26T09:28:05;9;;;5;;
83801;SDS011;73818;51.646;15.140;2024-02-26T09:34:16;8;;;5;;
83801;SDS011;73818;51.646;15.140;2024-02-26T09:40:28;9;;;5;;
83801;SDS011;73818;51.646;15.140;2024-02-26T09:46:39;9;;;5;;
83801;SDS011;73818;51.646;15.140;2024-02-26T09:52:51;9;;;5;;
83801;SDS011;73818;51.646;15.140;2024-02-26T09:59:03;9;;;5;;
83801;SDS011;73818;51.646;15.140;2024-02-26T10:05:16;9;;;5;;
83801;SDS011;73818;51.646;15.140;2024-02-26T10:11:26;11;;;5;;
83801;SDS011;73818;51.646;15.140;2024-02-26T10:17:38;12;;;6;;
83801;SDS011;73818;51.646;15.140;2024-02-26T10:23:49;22;;;8;;
83801;SDS011;73818;51.646;15.140;2024-02-26T10:30:04;30;;;9;;
83801;SDS011;73818;51.646;15.140;2024-02-26T10:36:13;30;;;10;;
83801;SDS011;73818;51.646;15.140;2024-02-26T10:42:25;32;;;11;;
83801;SDS011;73818;51.646;15.140;2024-02-26T10:48:36;36;;;12;;
83801;SDS011;73818;51.646;15.140;2024-02-26T10:54:47;35;;;11;;
83801;SDS011;73818;51.646;15.140;2024-02-26T11:01:00;34;;;12;;
83801;SDS011;73818;51.646;15.140;2024-02-26T11:07:11;34;;;11;;
83801;SDS011;73818;51.646;15.140;2024-02-26T11:13:23;32;;;11;;
83801;SDS011;73818;51.646;15.140;2024-02-26T11:19:35;32;;;11;;
83801;SDS011;73818;51.646;15.140;2024-02-26T11:25:47;30;;;10;;
83801;SDS011;73818;51.646;15.140;2024-02-26T11:31:59;27;;;10;;
83801;SDS011;73818;51.646;15.140;2024-02-26T11:38:09;27;;;10;;
83801;SDS011;73818;51.646;15.140;2024-02-26T11:50:40;26;;;9;;
83801;SDS011;73818;51.646;15.140;2024-02-26T11:56:45;23;;;9;;
83801;SDS011;73818;51.646;15.140;2024-02-26T12:02:56;26;;;9;;
83801;SDS011;73818;51.646;15.140;2024-02-26T12:09:08;23;;;9;;
83801;SDS011;73818;51.646;15.140;2024-02-26T12:15:22;22;;;9;;
83801;SDS011;73818;51.646;15.140;2024-02-26T12:21:35;22;;;9;;
83801;SDS011;73818;51.646;15.140;2024-02-26T12:27:43;22;;;9;;
83801;SDS011;73818;51.646;15.140;2024-02-26T12:33:55;19;;;8;;
83801;SDS011;73818;51.646;15.140;2024-02-26T12:40:06;21;;;8;;
83801;SDS011;73818;51.646;15.140;2024-02-26T12:46:18;17;;;8;;
83801;SDS011;73818;51.646;15.140;2024-02-26T12:52:37;19;;;8;;
83801;SDS011;73818;51.646;15.140;2024-02-26T12:58:42;20;;;8;;
83801;SDS011;73818;51.646;15.140;2024-02-26T13:04:54;19;;;8;;
83801;SDS011;73818;51.646;15.140;2024-02-26T13:11:06;19;;;8;;
83801;SDS011;73818;51.646;15.140;2024-02-26T13:23:28;18;;;7;;
83801;SDS011;73818;51.646;15.140;2024-02-26T13:29:41;16;;;8;;
83801;SDS011;73818;51.646;15.140;2024-02-26T13:35:53;15;;;7;;
83801;SDS011;73818;51.646;15.140;2024-02-26T13:42:04;16;;;7;;
83801;SDS011;73818;51.646;15.140;2024-02-26T13:48:16;16;;;7;;
83801;SDS011;73818;51.646;15.140;2024-02-26T13:54:27;14;;;7;;
83801;SDS011;73818;51.646;15.140;2024-02-26T14:00:39;14;;;6;;
83801;SDS011;73818;51.646;15.140;2024-02-26T14:06:51;13;;;6;;
83801;SDS011;73818;51.646;15.140;2024-02-26T14:13:05;14;;;6;;
83801;SDS011;73818;51.646;15.140;2024-02-26T14:19:13;13;;;6;;
83801;SDS011;73818;51.646;15.140;2024-02-26T14:25:25;13;;;6;;
83801;SDS011;73818;51.646;15.140;2024-02-26T14:31:36;13;;;6;;
83801;SDS011;73818;51.646;15.140;2024-02-26T14:37:48;11;;;5;;
83801;SDS011;73818;51.646;15.140;2024-02-26T14:44:00;12;;;5;;
83801;SDS011;73818;51.646;15.140;2024-02-26T14:50:12;11;;;6;;
83801;SDS011;73818;51.646;15.140;2024-02-26T14:56:23;11;;;5;;
83801;SDS011;73818;51.646;15.140;2024-02-26T15:02:35;10;;;5;;
83801;SDS011;73818;51.646;15.140;2024-02-26T15:08:47;11;;;5;;
83801;SDS011;73818;51.646;15.140;2024-02-26T15:14:58;11;;;5;;
83801;SDS011;73818;51.646;15.140;2024-02-26T15:21:11;11;;;6;;
83801;SDS011;73818;51.646;15.140;2024-02-26T15:27:22;10;;;5;;
83801;SDS011;73818;51.646;15.140;2024-02-26T15:33:33;11;;;5;;
83801;SDS011;73818;51.646;15.140;2024-02-26T15:39:45;11;;;5;;
83801;SDS011;73818;51.646;15.140;2024-02-26T15:45:57;11;;;6;;
83801;SDS011;73818;51.646;15.140;2024-02-26T15:52:09;9;;;6;;
83801;SDS011;73818;51.646;15.140;2024-02-26T15:58:20;10;;;6;;
83801;SDS011;73818;51.646;15.140;2024-02-26T16:04:32;11;;;6;;
83801;SDS011;73818;51.646;15.140;2024-02-26T16:10:43;13;;;6;;
83801;SDS011;73818;51.646;15.140;2024-02-26T16:16:57;15;;;6;;
83801;SDS011;73818;51.646;15.140;2024-02-26T16:23:06;14;;;6;;
83801;SDS011;73818;51.646;15.140;2024-02-26T16:29:18;12;;;6;;
83801;SDS011;73818;51.646;15.140;2024-02-26T16:35:31;12;;;6;;
83801;SDS011;73818;51.646;15.140;2024-02-26T16:41:42;12;;;6;;
83801;SDS011;73818;51.646;15.140;2024-02-26T16:47:53;12;;;5;;
83801;SDS011;73818;51.646;15.140;2024-02-26T16:54:05;11;;;5;;
83801;SDS011;73818;51.646;15.140;2024-02-26T17:00:17;12;;;6;;
83801;SDS011;73818;51.646;15.140;2024-02-26T17:06:28;11;;;5;;
83801;SDS011;73818;51.646;15.140;2024-02-26T17:12:41;10;;;4;;
83801;SDS011;73818;51.646;15.140;2024-02-26T17:18:52;11;;;5;;
83801;SDS011;73818;51.646;15.140;2024-02-26T17:25:04;9;;;5;;
83801;SDS011;73818;51.646;15.140;2024-02-26T17:31:15;9;;;5;;
83801;SDS011;73818;51.646;15.140;2024-02-26T17:37:27;11;;;5;;
83801;SDS011;73818;51.646;15.140;2024-02-26T17:43:39;10;;;5;;
83801;SDS011;73818;51.646;15.140;2024-02-26T17:49:50;10;;;5;;
83801;SDS011;73818;51.646;15.140;2024-02-26T17:56:02;9;;;5;;
83801;SDS011;73818;51.646;15.140;2024-02-26T18:02:14;9;;;5;;
83801;SDS011;73818;51.646;15.140;2024-02-26T18:08:25;9;;;5;;
83801;SDS011;73818;51.646;15.140;2024-02-26T18:14:37;9;;;5;;
83801;SDS011;73818;51.646;15.140;2024-02-26T18:20:48;9;;;5;;
83801;SDS011;73818;51.646;15.140;2024-02-26T18:27:00;8;;;5;;
83801;SDS011;73818;51.646;15.140;2024-02-26T18:33:13;9;;;5;;
83801;SDS011;73818;51.646;15.140;2024-02-26T18:39:25;10;;;5;;
83801;SDS011;73818;51.646;15.140;2024-02-26T18:45:36;9;;;5;;
83801;SDS011;73818;51.646;15.140;2024-02-26T18:51:48;9;;;5;;
83801;SDS011;73818;51.646;15.140;2024-02-26T18:58:00;9;;;5;;
83801;SDS011;73818;51.646;15.140;2024-02-26T19:04:11;9;;;6;;
83801;SDS011;73818;51.646;15.140;2024-02-26T19:10:24;9;;;5;;
83801;SDS011;73818;51.646;15.140;2024-02-26T19:16:35;9;;;5;;
83801;SDS011;73818;51.646;15.140;2024-02-26T19:22:47;9;;;5;;
83801;SDS011;73818;51.646;15.140;2024-02-26T19:31:55;9;;;5;;
83801;SDS011;73818;51.646;15.140;2024-02-26T19:38:06;9;;;5;;
83801;SDS011;73818;51.646;15.140;2024-02-26T19:44:17;9;;;5;;
83801;SDS011;73818;51.646;15.140;2024-02-26T19:50:29;9;;;5;;
83801;SDS011;73818;51.646;15.140;2024-02-26T19:56:41;9;;;5;;
83801;SDS011;73818;51.646;15.140;2024-02-26T20:02:52;9;;;5;;
83801;SDS011;73818;51.646;15.140;2024-02-26T20:09:05;9;;;5;;
83801;SDS011;73818;51.646;15.140;2024-02-26T20:15:17;8;;;5;;
83801;SDS011;73818;51.646;15.140;2024-02-26T20:21:28;8;;;5;;
83801;SDS011;73818;51.646;15.140;2024-02-26T20:27:41;9;;;5;;
83801;SDS011;73818;51.646;15.140;2024-02-26T20:33:52;9;;;5;;
83801;SDS011;73818;51.646;15.140;2024-02-26T20:40:05;8;;;5;;
83801;SDS011;73818;51.646;15.140;2024-02-26T20:46:16;8;;;5;;
83801;SDS011;73818;51.646;15.140;2024-02-26T20:52:29;9;;;5;;
83801;SDS011;73818;51.646;15.140;2024-02-26T20:58:40;8;;;5;;
83801;SDS011;73818;51.646;15.140;2024-02-26T21:04:52;8;;;5;;
83801;SDS011;73818;51.646;15.140;2024-02-26T21:11:04;8;;;5;;
83801;SDS011;73818;51.646;15.140;2024-02-26T21:17:15;8;;;6;;
83801;SDS011;73818;51.646;15.140;2024-02-26T21:23:28;9;;;5;;
83801;SDS011;73818;51.646;15.140;2024-02-26T21:29:39;8;;;5;;
83801;SDS011;73818;51.646;15.140;2024-02-26T21:35:50;8;;;5;;
83801;SDS011;73818;51.646;15.140;2024-02-26T21:42:02;8;;;5;;
83801;SDS011;73818;51.646;15.140;2024-02-26T21:48:13;9;;;6;;
83801;SDS011;73818;51.646;15.140;2024-02-26T21:54:26;8;;;5;;
83801;SDS011;73818;51.646;15.140;2024-02-26T22:00:37;8;;;5;;
83801;SDS011;73818;51.646;15.140;2024-02-26T22:06:49;9;;;5;;
83801;SDS011;73818;51.646;15.140;2024-02-26T22:13:00;9;;;5;;
83801;SDS011;73818;51.646;15.140;2024-02-26T22:19:12;8;;;5;;
83801;SDS011;73818;51.646;15.140;2024-02-26T22:25:24;8;;;5;;
83801;SDS011;73818;51.646;15.140;2024-02-26T22:31:35;9;;;5;;
83801;SDS011;73818;51.646;15.140;2024-02-26T22:37:47;8;;;5;;
83801;SDS011;73818;51.646;15.140;2024-02-26T22:43:59;8;;;5;;
83801;SDS011;73818;51.646;15.140;2024-02-26T22:50:11;8;;;5;;
83801;SDS011;73818;51.646;15.140;2024-02-26T22:56:23;8;;;5;;
83801;SDS011;73818;51.646;15.140;2024-02-26T23:02:35;9;;;5;;
83801;SDS011;73818;51.646;15.140;2024-02-26T23:08:46;8;;;6;;
83801;SDS011;73818;51.646;15.140;2024-02-26T23:14:58;8;;;5;;
83801;SDS011;73818;51.646;15.140;2024-02-26T23:21:09;9;;;6;;
83801;SDS011;73818;51.646;15.140;2024-02-26T23:27:21;8;;;5;;
83801;SDS011;73818;51.646;15.140;2024-02-26T23:33:32;8;;;5;;
83801;SDS011;73818;51.646;15.140;2024-02-26T23:39:43;8;;;5;;
83801;SDS011;73818;51.646;15.140;2024-02-26T23:45:55;8;;;5;;
83801;SDS011;73818;51.646;15.140;2024-02-26T23:52:06;8;;;5;;
83801;SDS011;73818;51.646;15.140;2024-02-26T23:58:20;9;;;5;;
